createdAt,value
2018-09-22T00:01:42.632Z,98.00
2018-09-22T00:04:12.687Z,98.10
2018-09-22T00:06:42.807Z,97.90
2018-09-22T00:09:13.577Z,97.40
2018-09-22T00:11:43.692Z,97.20
2018-09-22T00:14:13.800Z,97.50
2018-09-22T00:16:44.412Z,97.40
2018-09-22T00:19:14.496Z,97.60
2018-09-22T00:21:44.783Z,97.10
2018-09-22T00:24:14.778Z,97.30
2018-09-22T00:26:45.068Z,97.00
2018-09-22T00:29:15.197Z,97.00
2018-09-22T00:31:45.285Z,97.20
2018-09-22T00:34:15.376Z,97.00
2018-09-22T00:36:45.508Z,96.90
2018-09-22T00:39:15.656Z,96.70
2018-09-22T00:41:45.776Z,96.80
2018-09-22T00:44:15.884Z,96.60
2018-09-22T00:46:45.972Z,96.40
2018-09-22T00:49:16.087Z,96.40
2018-09-22T00:51:46.141Z,96.60
2018-09-22T00:54:16.236Z,96.40
2018-09-22T00:56:46.349Z,96.20
2018-09-22T00:59:16.392Z,96.40
2018-09-22T01:01:46.709Z,96.00
2018-09-22T01:04:16.786Z,96.00
2018-09-22T01:06:46.861Z,96.00
2018-09-22T01:09:16.900Z,95.90
2018-09-22T01:11:47.040Z,95.80
2018-09-22T01:14:17.117Z,95.60
2018-09-22T01:16:47.236Z,95.80
2018-09-22T01:19:17.297Z,95.90
2018-09-22T01:21:47.368Z,95.90
2018-09-22T01:24:17.421Z,95.90
2018-09-22T01:26:47.465Z,95.90
2018-09-22T01:29:17.557Z,96.00
2018-09-22T01:31:47.661Z,96.00
2018-09-22T01:34:17.737Z,96.00
2018-09-22T01:36:47.810Z,95.90
2018-09-22T01:39:17.905Z,95.90
2018-09-22T01:41:48.048Z,95.90
2018-09-22T01:44:18.138Z,95.60
2018-09-22T01:46:48.337Z,95.60
2018-09-22T01:49:18.296Z,95.70
2018-09-22T01:51:48.376Z,95.50
2018-09-22T01:54:18.478Z,95.40
2018-09-22T01:56:48.561Z,95.50
2018-09-22T01:59:18.644Z,95.40
2018-09-22T02:01:48.712Z,95.60
2018-09-22T02:04:18.824Z,95.40
2018-09-22T02:06:48.904Z,95.30
2018-09-22T02:09:19.002Z,95.30
2018-09-22T02:11:49.069Z,95.20
2018-09-22T02:14:19.169Z,95.00
2018-09-22T02:16:49.312Z,94.90
2018-09-22T02:19:19.724Z,94.80
2018-09-22T02:21:49.961Z,94.70
2018-09-22T02:24:20.045Z,94.90
2018-09-22T02:26:50.156Z,94.80
2018-09-22T02:29:20.232Z,94.50
2018-09-22T02:31:50.317Z,94.90
2018-09-22T02:34:20.484Z,94.80
2018-09-22T02:36:50.849Z,94.90
2018-09-22T02:39:20.908Z,94.70
2018-09-22T02:41:50.984Z,95.00
2018-09-22T02:44:21.030Z,94.80
2018-09-22T02:46:51.136Z,95.10
2018-09-22T02:49:21.225Z,94.80
2018-09-22T02:51:51.980Z,94.90
2018-09-22T02:54:22.051Z,95.10
2018-09-22T02:56:52.172Z,95.00
2018-09-22T02:59:22.249Z,94.90
2018-09-22T03:01:52.400Z,94.70
2018-09-22T03:04:22.481Z,94.90
2018-09-22T03:06:52.608Z,94.80
2018-09-22T03:09:22.663Z,94.70
2018-09-22T03:11:52.756Z,94.70
2018-09-22T03:14:22.819Z,94.40
2018-09-22T03:16:52.923Z,94.50
2018-09-22T03:19:22.994Z,94.30
2018-09-22T03:21:53.114Z,94.40
2018-09-22T03:24:23.181Z,94.40
2018-09-22T03:26:53.244Z,94.20
2018-09-22T03:29:23.337Z,94.20
2018-09-22T03:31:53.952Z,94.10
2018-09-22T03:34:24.012Z,94.00
2018-09-22T03:36:54.104Z,94.10
2018-09-22T03:39:24.193Z,93.90
2018-09-22T03:41:54.313Z,94.10
2018-09-22T03:44:24.393Z,94.00
2018-09-22T03:46:54.488Z,93.90
2018-09-22T03:49:24.560Z,93.70
2018-09-22T03:51:55.068Z,93.90
2018-09-22T03:54:25.196Z,93.70
2018-09-22T03:56:55.260Z,93.60
2018-09-22T03:59:25.366Z,93.60
2018-09-22T04:01:55.676Z,93.70
2018-09-22T04:04:26.123Z,93.70
2018-09-22T04:06:56.936Z,94.00
2018-09-22T04:09:28.024Z,93.80
2018-09-22T04:11:58.206Z,93.70
2018-09-22T04:14:28.324Z,94.00
2018-09-22T04:16:58.470Z,94.00
2018-09-22T04:19:28.552Z,93.80
2018-09-22T04:21:58.636Z,94.10
2018-09-22T04:24:29.456Z,93.60
2018-09-22T04:26:59.946Z,93.60
2018-09-22T04:29:30.084Z,93.40
2018-09-22T04:32:00.776Z,93.30
2018-09-22T04:34:31.653Z,93.40
2018-09-22T04:37:02.470Z,93.30
2018-09-22T04:39:32.600Z,92.90
2018-09-22T04:42:02.725Z,93.20
2018-09-22T04:44:32.769Z,93.00
2018-09-22T04:47:02.910Z,92.90
2018-09-22T04:49:33.973Z,92.80
2018-09-22T04:52:04.153Z,92.60
2018-09-22T04:54:34.773Z,92.60
2018-09-22T04:57:04.880Z,92.30
2018-09-22T04:59:36.277Z,92.40
2018-09-22T05:02:06.913Z,92.20
2018-09-22T05:04:37.293Z,92.10
2018-09-22T05:07:09.124Z,92.10
2018-09-22T05:09:39.708Z,92.10
2018-09-22T05:12:09.903Z,92.00
2018-09-22T05:14:40.499Z,92.00
2018-09-22T05:17:10.698Z,91.90
2018-09-22T05:19:40.837Z,91.70
2018-09-22T05:22:10.954Z,91.60
2018-09-22T05:24:41.096Z,91.90
2018-09-22T05:27:11.409Z,91.80
2018-09-22T05:29:41.524Z,91.60
2018-09-22T05:32:12.259Z,91.70
2018-09-22T05:34:42.451Z,92.20
2018-09-22T05:37:12.635Z,92.10
2018-09-22T05:39:42.736Z,92.30
2018-09-22T05:42:12.955Z,92.10
2018-09-22T05:44:43.884Z,92.30
2018-09-22T05:47:14.750Z,92.20
2018-09-22T05:49:45.676Z,92.20
2018-09-22T05:52:15.804Z,92.30
2018-09-22T05:54:45.988Z,92.20
2018-09-22T05:57:16.112Z,91.90
2018-09-22T05:59:46.256Z,91.80
2018-09-22T06:02:16.484Z,91.70
2018-09-22T06:04:47.310Z,91.70
2018-09-22T06:07:18.365Z,91.50
2018-09-22T06:09:49.090Z,91.40
2018-09-22T06:12:19.219Z,91.50
2018-09-22T06:14:49.388Z,91.50
2018-09-22T06:17:20.125Z,91.10
2018-09-22T06:19:50.283Z,91.30
2018-09-22T06:22:20.472Z,91.40
2018-09-22T06:24:50.624Z,91.10
2018-09-22T06:27:20.783Z,91.00
2018-09-22T06:29:50.986Z,91.10
2018-09-22T06:32:21.675Z,90.90
2018-09-22T06:34:51.804Z,90.70
2018-09-22T06:37:21.973Z,90.70
2018-09-22T06:39:52.616Z,90.50
2018-09-22T06:42:23.625Z,90.50
2018-09-22T06:44:53.748Z,90.50
2018-09-22T06:47:23.904Z,90.30
2018-09-22T06:49:54.253Z,90.50
2018-09-22T06:52:24.382Z,90.40
2018-09-22T06:54:54.551Z,90.40
2018-09-22T06:57:25.212Z,90.90
2018-09-22T06:59:56.311Z,89.60
2018-09-22T07:02:26.633Z,89.50
2018-09-22T07:04:57.452Z,90.00
2018-09-22T07:07:28.157Z,90.20
2018-09-22T07:09:58.308Z,90.10
2018-09-22T07:12:28.428Z,89.60
2018-09-22T07:14:59.044Z,88.70
2018-09-22T07:17:29.169Z,89.70
2018-09-22T07:19:59.276Z,88.70
2018-09-22T07:22:34.645Z,88.60
2018-09-22T07:25:05.226Z,89.40
2018-09-22T07:27:36.096Z,88.00
2018-09-22T07:30:06.296Z,88.10
2018-09-22T07:32:37.356Z,88.60
2018-09-22T07:35:07.511Z,87.70
2018-09-22T07:37:38.234Z,88.10
2018-09-22T07:40:08.392Z,88.80
2018-09-22T07:42:38.720Z,89.40
2018-09-22T07:45:08.975Z,88.10
2018-09-22T07:47:39.096Z,89.70
2018-09-22T07:50:09.868Z,89.60
2018-09-22T07:52:39.977Z,89.40
2018-09-22T07:55:10.153Z,88.90
2018-09-22T07:57:40.352Z,89.60
2018-09-22T08:00:12.085Z,88.70
2018-09-22T08:02:43.601Z,86.60
2018-09-22T08:05:13.738Z,87.50
2018-09-22T08:07:43.847Z,86.70
2018-09-22T08:10:14.908Z,87.70
2018-09-22T08:12:45.748Z,85.90
2018-09-22T08:15:16.604Z,86.60
2018-09-22T08:17:46.718Z,85.80
2018-09-22T08:20:16.843Z,87.70
2018-09-22T08:22:47.554Z,87.40
2018-09-22T08:25:17.687Z,86.80
2018-09-22T08:27:48.644Z,87.20
2018-09-22T08:30:19.438Z,87.00
2018-09-22T08:32:50.433Z,86.50
2018-09-22T08:35:21.229Z,87.00
2018-09-22T08:37:52.256Z,85.60
2018-09-22T08:40:23.160Z,85.90
2018-09-22T08:42:53.492Z,85.20
2018-09-22T08:45:23.604Z,84.70
2018-09-22T08:47:53.757Z,86.10
2018-09-22T08:50:24.444Z,83.30
2018-09-22T08:52:54.800Z,83.30
2018-09-22T08:55:25.557Z,84.90
2018-09-22T08:57:55.705Z,82.80
2018-09-22T09:00:26.629Z,82.70
2018-09-22T09:02:56.722Z,82.20
2018-09-22T09:05:26.897Z,81.90
2018-09-22T09:07:59.335Z,82.90
2018-09-22T09:10:29.465Z,81.40
2018-09-22T09:13:00.336Z,81.00
2018-09-22T09:15:30.511Z,81.80
2018-09-22T09:18:00.664Z,79.90
2018-09-22T09:20:30.957Z,80.50
2018-09-22T09:23:01.777Z,79.90
2018-09-22T09:25:31.874Z,80.80
2018-09-22T09:28:02.786Z,79.40
2018-09-22T09:30:32.901Z,78.40
2018-09-22T09:33:03.037Z,77.50
2018-09-22T09:35:33.220Z,76.10
2018-09-22T09:38:03.372Z,78.20
2018-09-22T09:40:33.512Z,77.50
2018-09-22T09:43:04.209Z,76.80
2018-09-22T09:45:34.320Z,78.30
2018-09-22T09:48:05.112Z,75.50
2018-09-22T09:50:35.329Z,74.80
2018-09-22T09:53:05.698Z,75.20
2018-09-22T09:55:35.784Z,74.30
2018-09-22T09:58:06.764Z,75.60
2018-09-22T10:00:42.272Z,75.80
2018-09-22T10:03:13.154Z,76.40
2018-09-22T10:05:43.800Z,74.20
2018-09-22T10:08:14.714Z,72.60
2018-09-22T10:10:45.420Z,71.50
2018-09-22T10:13:16.071Z,71.70
2018-09-22T10:15:46.783Z,72.90
2018-09-22T10:18:16.877Z,73.30
2018-09-22T10:20:47.085Z,72.10
2018-09-22T10:23:18.598Z,74.10
2018-09-22T10:25:49.212Z,72.90
2018-09-22T10:28:19.864Z,73.90
2018-09-22T10:30:50.017Z,73.80
2018-09-22T10:33:20.857Z,73.80
2018-09-22T10:35:51.679Z,72.80
2018-09-22T10:38:21.790Z,73.60
2018-09-22T10:40:51.896Z,74.00
2018-09-22T10:43:22.012Z,71.90
2018-09-22T10:45:52.288Z,73.20
2018-09-22T10:48:22.499Z,72.50
2018-09-22T10:50:52.797Z,73.30
2018-09-22T10:53:22.950Z,71.70
2018-09-22T10:55:53.061Z,71.90
2018-09-22T10:58:23.233Z,73.00
2018-09-22T11:00:54.008Z,70.40
2018-09-22T11:03:24.225Z,72.50
2018-09-22T11:05:54.340Z,71.30
2018-09-22T11:08:25.080Z,73.60
2018-09-22T11:10:55.430Z,70.70
2018-09-22T11:13:25.601Z,72.70
2018-09-22T11:15:55.736Z,71.00
2018-09-22T11:18:25.853Z,69.40
2018-09-22T11:20:56.004Z,73.10
2018-09-22T11:23:27.111Z,70.00
2018-09-22T11:25:57.224Z,67.20
2018-09-22T11:28:27.332Z,67.00
2018-09-22T11:30:57.490Z,66.10
2018-09-22T11:33:27.573Z,67.20
2018-09-22T11:35:57.774Z,65.80
2018-09-22T11:38:28.445Z,65.40
2018-09-22T11:40:58.600Z,65.60
2018-09-22T11:43:28.761Z,63.50
2018-09-22T11:45:59.712Z,61.90
2018-09-22T11:48:29.869Z,63.10
2018-09-22T11:51:00.984Z,63.20
2018-09-22T11:53:31.124Z,61.70
2018-09-22T11:56:01.766Z,61.30
2018-09-22T11:58:31.824Z,61.90
2018-09-22T12:01:02.005Z,64.20
2018-09-22T12:03:32.149Z,62.60
2018-09-22T12:06:02.306Z,63.10
2018-09-22T12:08:32.414Z,63.40
2018-09-22T12:11:03.017Z,60.50
2018-09-22T12:13:33.149Z,62.80
2018-09-22T12:16:04.020Z,62.30
2018-09-22T12:18:35.156Z,62.10
2018-09-22T12:21:05.288Z,62.40
2018-09-22T12:23:35.453Z,63.20
2018-09-22T12:26:06.792Z,63.30
2018-09-22T12:28:36.913Z,64.00
2018-09-22T12:31:07.049Z,63.00
2018-09-22T12:33:37.160Z,63.30
2018-09-22T12:36:07.568Z,64.50
2018-09-22T12:38:37.742Z,64.00
2018-09-22T12:41:08.394Z,63.80
2018-09-22T12:43:39.509Z,62.80
2018-09-22T12:46:09.660Z,62.40
2018-09-22T12:48:40.708Z,64.20
2018-09-22T12:51:10.877Z,63.60
2018-09-22T12:53:41.076Z,63.70
2018-09-22T12:56:11.872Z,63.20
2018-09-22T12:58:42.020Z,62.60
2018-09-22T13:01:12.116Z,61.20
2018-09-22T13:03:42.838Z,62.20
2018-09-22T13:06:15.005Z,62.80
2018-09-22T13:08:45.196Z,60.90
2018-09-22T13:11:15.276Z,60.50
2018-09-22T13:13:45.405Z,57.60
2018-09-22T13:16:16.321Z,58.60
2018-09-22T13:18:47.229Z,61.10
2018-09-22T13:21:17.370Z,59.70
2018-09-22T13:23:47.452Z,58.90
2018-09-22T13:26:18.180Z,58.10
2018-09-22T13:28:48.991Z,58.30
2018-09-22T13:31:19.126Z,57.90
2018-09-22T13:33:49.337Z,57.60
2018-09-22T13:36:19.824Z,56.70
2018-09-22T13:38:49.896Z,55.90
2018-09-22T13:41:20.060Z,58.30
2018-09-22T13:43:50.677Z,57.60
2018-09-22T13:46:20.780Z,57.10
2018-09-22T13:48:50.889Z,57.20
2018-09-22T13:51:21.044Z,58.10
2018-09-22T13:53:51.170Z,59.40
2018-09-22T13:56:21.340Z,58.90
2018-09-22T13:58:51.488Z,58.50
2018-09-22T14:01:21.848Z,56.90
2018-09-22T14:03:51.984Z,58.40
2018-09-22T14:06:22.136Z,57.50
2018-09-22T14:08:53.024Z,57.70
2018-09-22T14:11:23.880Z,57.80
2018-09-22T14:13:54.036Z,57.50
2018-09-22T14:16:25.160Z,56.70
2018-09-22T14:18:55.277Z,57.90
2018-09-22T14:21:26.076Z,58.70
2018-09-22T14:23:56.813Z,57.30
2018-09-22T14:26:27.429Z,59.50
2018-09-22T14:28:58.098Z,58.40
2018-09-22T14:31:28.360Z,58.60
2018-09-22T14:33:58.452Z,58.00
2018-09-22T14:36:28.548Z,57.40
2018-09-22T14:38:58.812Z,56.60
2018-09-22T14:41:29.461Z,56.30
2018-09-22T14:43:59.596Z,54.70
2018-09-22T14:46:29.776Z,55.60
2018-09-22T14:49:01.451Z,54.80
2018-09-22T14:51:31.564Z,54.20
2018-09-22T14:54:01.652Z,56.20
2018-09-22T14:56:31.912Z,54.50
2018-09-22T14:59:02.733Z,54.20
2018-09-22T15:01:32.834Z,53.60
2018-09-22T15:04:02.940Z,56.60
2018-09-22T15:06:33.061Z,55.70
2018-09-22T15:09:03.288Z,57.10
2018-09-22T15:11:34.131Z,56.70
2018-09-22T15:14:04.284Z,56.90
2018-09-22T15:16:35.901Z,57.70
2018-09-22T15:19:06.380Z,58.20
2018-09-22T15:21:36.577Z,57.80
2018-09-22T15:24:06.689Z,58.50
2018-09-22T15:26:37.261Z,57.10
2018-09-22T15:29:08.096Z,56.90
2018-09-22T15:31:38.805Z,56.90
2018-09-22T15:34:08.897Z,57.50
2018-09-22T15:36:39.044Z,58.50
2018-09-22T15:39:09.737Z,57.90
2018-09-22T15:41:39.893Z,59.00
2018-09-22T15:44:10.004Z,59.80
2018-09-22T15:46:40.138Z,61.10
2018-09-22T15:49:10.244Z,60.70
2018-09-22T15:51:40.382Z,60.00
2018-09-22T15:54:10.601Z,59.50
2018-09-22T15:56:40.736Z,58.50
2018-09-22T15:59:10.928Z,59.20
2018-09-22T16:01:41.117Z,60.60
2018-09-22T16:04:11.232Z,60.70
2018-09-22T16:06:41.424Z,61.10
2018-09-22T16:09:11.603Z,61.20
2018-09-22T16:11:41.783Z,61.80
2018-09-22T16:14:12.933Z,62.40
2018-09-22T16:16:43.080Z,62.90
2018-09-22T16:19:13.216Z,63.80
2018-09-22T16:21:43.460Z,64.90
2018-09-22T16:24:13.547Z,65.80
2018-09-22T16:26:44.201Z,66.10
2018-09-22T16:29:15.056Z,67.40
2018-09-22T16:31:45.721Z,68.00
2018-09-22T16:34:17.004Z,68.10
2018-09-22T16:36:47.708Z,68.80
2018-09-22T16:39:18.484Z,68.50
2018-09-22T16:41:48.677Z,69.90
2018-09-22T16:44:19.477Z,69.90
2018-09-22T16:46:50.303Z,69.60
2018-09-22T16:49:20.463Z,69.50
2018-09-22T16:51:50.676Z,69.90
2018-09-22T16:54:21.282Z,70.70
2018-09-22T16:56:51.478Z,70.60
2018-09-22T16:59:22.302Z,70.50
2018-09-22T17:01:52.419Z,71.30
2018-09-22T17:04:22.732Z,71.00
2018-09-22T17:06:52.820Z,70.80
2018-09-22T17:09:23.298Z,71.30
2018-09-22T17:11:53.400Z,71.50
2018-09-22T17:14:23.500Z,71.70
2018-09-22T17:16:53.568Z,72.30
2018-09-22T17:19:23.715Z,72.70
2018-09-22T17:21:54.006Z,73.70
2018-09-22T17:24:24.124Z,72.50
2018-09-22T17:26:54.247Z,72.50
2018-09-22T17:29:24.379Z,72.70
2018-09-22T17:31:54.488Z,73.40
2018-09-22T17:34:24.612Z,73.30
2018-09-22T17:36:54.900Z,73.20
2018-09-22T17:39:24.977Z,73.50
2018-09-22T17:41:55.046Z,74.10
2018-09-22T17:44:25.648Z,74.00
2018-09-22T17:46:56.050Z,74.30
2018-09-22T17:49:26.195Z,74.10
2018-09-22T17:51:56.476Z,74.60
2018-09-22T17:54:26.574Z,75.10
2018-09-22T17:56:56.710Z,75.20
2018-09-22T17:59:26.854Z,75.50
2018-09-22T18:01:57.829Z,75.40
2018-09-22T18:04:28.172Z,75.50
2018-09-22T18:06:58.311Z,75.70
2018-09-22T18:09:28.446Z,76.10
2018-09-22T18:11:58.542Z,76.60
2018-09-22T18:14:29.708Z,76.40
2018-09-22T18:16:59.824Z,76.50
2018-09-22T18:19:29.948Z,77.10
2018-09-22T18:21:59.993Z,77.60
2018-09-22T18:24:30.085Z,77.40
2018-09-22T18:27:00.180Z,77.70
2018-09-22T18:29:30.273Z,77.90
2018-09-22T18:32:00.448Z,77.80
2018-09-22T18:34:30.561Z,78.20
2018-09-22T18:37:00.712Z,78.50
2018-09-22T18:39:30.809Z,78.80
2018-09-22T18:42:00.896Z,79.20
2018-09-22T18:44:32.000Z,78.90
2018-09-22T18:47:02.069Z,79.40
2018-09-22T18:49:32.227Z,79.30
2018-09-22T18:52:02.329Z,79.00
2018-09-22T18:54:32.437Z,79.10
2018-09-22T18:57:02.475Z,79.50
2018-09-22T18:59:32.524Z,79.70
2018-09-22T19:02:02.611Z,80.10
2018-09-22T19:04:32.721Z,80.20
2018-09-22T19:07:02.801Z,80.40
2018-09-22T19:09:32.865Z,81.00
2018-09-22T19:12:02.936Z,81.20
2018-09-22T19:14:36.772Z,80.70
2018-09-22T19:17:25.465Z,81.40
2018-09-22T19:20:03.316Z,81.20
2018-09-22T19:22:45.800Z,81.40
2018-09-22T19:25:18.411Z,81.40
2018-09-22T19:27:53.915Z,81.60
2018-09-22T19:30:27.740Z,81.20
2018-09-22T19:33:02.050Z,80.50
2018-09-22T19:35:40.265Z,80.50
2018-09-22T19:38:18.945Z,81.60
2018-09-22T19:40:57.960Z,80.50
2018-09-22T19:43:47.571Z,80.90
2018-09-22T19:46:20.065Z,81.20
2018-09-22T19:48:53.584Z,81.20
2018-09-22T19:51:25.401Z,81.90
2018-09-22T19:53:56.689Z,81.90
2018-09-22T19:56:26.744Z,82.00
2018-09-22T19:58:56.896Z,81.80
2018-09-22T20:01:26.977Z,81.80
2018-09-22T20:03:57.032Z,82.10
2018-09-22T20:06:27.109Z,82.00
2018-09-22T20:08:57.240Z,82.00
2018-09-22T20:11:27.939Z,81.70
2018-09-22T20:13:58.536Z,82.20
2018-09-22T20:16:28.620Z,82.20
2018-09-22T20:18:58.760Z,82.30
2018-09-22T20:21:28.833Z,82.70
2018-09-22T20:23:58.945Z,82.20
2018-09-22T20:26:29.044Z,82.50
2018-09-22T20:28:59.144Z,82.70
2018-09-22T20:31:29.224Z,83.10
2018-09-22T20:33:59.289Z,83.40
2018-09-22T20:36:29.475Z,83.40
2018-09-22T20:39:00.351Z,83.90
2018-09-22T20:41:30.447Z,83.50
2018-09-22T20:44:00.592Z,83.80
2018-09-22T20:46:30.677Z,84.60
2018-09-22T20:49:00.828Z,84.30
2018-09-22T20:51:31.182Z,85.00
2018-09-22T20:54:01.310Z,85.00
2018-09-22T20:56:31.361Z,84.80
2018-09-22T20:59:01.628Z,85.00
2018-09-22T21:01:32.172Z,85.00
2018-09-22T21:04:02.305Z,85.50
2018-09-22T21:06:32.372Z,85.40
2018-09-22T21:09:02.590Z,85.60
2018-09-22T21:11:32.696Z,85.90
2018-09-22T21:14:02.808Z,86.70
2018-09-22T21:16:32.876Z,86.50
2018-09-22T21:19:02.964Z,86.20
2018-09-22T21:21:33.021Z,86.40
2018-09-22T21:24:03.122Z,86.40
2018-09-22T21:26:33.263Z,86.80
2018-09-22T21:29:03.352Z,87.10
2018-09-22T21:31:33.657Z,87.30
2018-09-22T21:34:03.786Z,87.00
2018-09-22T21:36:33.872Z,87.60
2018-09-22T21:39:05.257Z,87.20
2018-09-22T21:41:35.349Z,87.30
2018-09-22T21:44:05.481Z,87.20
2018-09-22T21:46:35.618Z,87.20
2018-09-22T21:49:05.728Z,87.40
2018-09-22T21:51:35.812Z,88.00
2018-09-22T21:54:05.893Z,87.80
2018-09-22T21:56:35.980Z,87.70
2018-09-22T21:59:07.302Z,88.00
2018-09-22T22:01:40.328Z,88.00
2018-09-22T22:04:11.356Z,88.00
2018-09-22T22:06:42.023Z,88.10
2018-09-22T22:09:13.564Z,88.20
2018-09-22T22:11:43.638Z,88.00
2018-09-22T22:14:13.720Z,88.30
2018-09-22T22:16:43.815Z,87.90
2018-09-22T22:19:13.909Z,88.50
2018-09-22T22:21:44.736Z,88.80
2018-09-22T22:24:14.832Z,88.60
2018-09-22T22:26:44.924Z,89.10
2018-09-22T22:29:14.996Z,89.50
2018-09-22T22:31:45.742Z,89.00
2018-09-22T22:34:15.840Z,89.50
2018-09-22T22:36:45.928Z,89.80
2018-09-22T22:39:16.700Z,89.30
2018-09-22T22:41:46.864Z,89.30
2018-09-22T22:44:16.968Z,89.00
2018-09-22T22:46:47.056Z,89.50
2018-09-22T22:49:17.180Z,89.60
2018-09-22T22:51:47.576Z,89.80
2018-09-22T22:54:17.688Z,90.10
2018-09-22T22:56:48.168Z,90.40
2018-09-22T22:59:18.264Z,90.20
2018-09-22T23:01:48.705Z,90.20
2018-09-22T23:04:18.804Z,90.30
2018-09-22T23:06:48.869Z,90.70
2018-09-22T23:09:18.956Z,90.80
2018-09-22T23:11:48.996Z,91.00
2018-09-22T23:14:19.153Z,91.00
2018-09-22T23:16:49.112Z,91.00
2018-09-22T23:19:19.697Z,91.10
2018-09-22T23:21:49.788Z,91.00
2018-09-22T23:24:19.880Z,91.20
2018-09-22T23:26:49.952Z,91.20
2018-09-22T23:29:20.139Z,91.50
2018-09-22T23:31:50.288Z,91.50
2018-09-22T23:34:20.320Z,91.80
2018-09-22T23:36:50.412Z,91.80
2018-09-22T23:39:20.542Z,91.80
2018-09-22T23:41:50.591Z,91.90
2018-09-22T23:44:20.768Z,92.00
2018-09-22T23:46:50.992Z,92.10
2018-09-22T23:49:21.077Z,92.00
2018-09-22T23:51:51.126Z,92.10
2018-09-22T23:54:21.200Z,92.40
2018-09-22T23:56:51.269Z,92.40
2018-09-22T23:59:21.333Z,92.50
